• Join FlightAware (Why Join?)
  • Login
  • US Flag 
06:10AM EDT


 

Airport Tracker/Info


-or-


 

Live Flight TrackerFlight Track Log ✈ UAL252 ✈ 24-Jul-2013 ✈ KSFO - KCLE

Flight Track Log - Related Links

Times and Time Zones

All times are in EDT time to prevent confusion due to time zone crossing. See the UAL252 flight status page for this flight to view local times or setup timezone preferences in your user account.

Time Position Orientation Groundspeed Altitude Reporting Facility
EDT Latitude Longitude Course Direction KTS MPH feet Rate Location/Type
07:56PM 37.6833 -122.2833 34° Northeast 229 264 2,600  Level Northern Cal TRACON
07:57PM 37.7333 -122.2167 47° Northeast 274 315 5,400 120 Climbing Northern Cal TRACON
07:58PM 37.5500 -122.2167 180° South 190 219 2,900 -1,620 Descending Northern Cal TRACON
07:59PM 37.5833 -122.2833 302° West 194 223 1,700 5,460 Descending Northern Cal TRACON
08:00PM 37.9317 -122.0239 30° Northeast 350 403 11,900 7,620 Climbing Oakland Center
08:01PM 37.8658 -122.1056 34° Northeast  Level FlightAware Approximate
08:01PM 38.0131 -121.9497 36° Northeast 360 414 14,200  Level Oakland Center
08:02PM 38.0964 -121.8719 36° Northeast 372 428 16,000 1,740 Climbing Oakland Center
08:03PM 38.1842 -121.7908 36° Northeast 387 445 17,800 1,800 Climbing Oakland Center
08:04PM 38.2744 -121.7081 36° Northeast 399 459 19,700 1,620 Climbing Oakland Center
08:05PM 38.3672 -121.6219 36° Northeast 412 474 21,200 1,500 Climbing Oakland Center
08:06PM 38.4567 -121.5311 38° Northeast 415 478 22,800 1,440 Climbing Oakland Center
08:07PM 38.5314 -121.4031 53° Northeast 435 501 24,200 1,500 Climbing Oakland Center
08:08PM 38.6208 -121.2519 53° Northeast 445 512 25,900 1,320 Climbing Oakland Center
08:09PM 38.6858 -121.1369 54° Northeast 452 520 26,900 780 Climbing Oakland Center
08:10PM 38.7642 -121.0008 54° Northeast 471 542 27,500 840 Climbing Oakland Center
08:11PM 38.8458 -120.8597 53° Northeast 489 563 28,700 1,380 Climbing Oakland Center
08:12PM 38.9433 -120.6914 53° Northeast 489 563 30,400 1,500 Climbing Oakland Center
08:13PM 39.0233 -120.5533 53° Northeast 484 557 31,800 1,140 Climbing Oakland Center
08:14PM 39.1022 -120.4136 54° Northeast 483 556 32,800 960 Climbing Oakland Center
08:15PM 39.1856 -120.2725 53° Northeast 493 567 33,800 1,080 Climbing Oakland Center
08:16PM 39.2642 -120.1325 54° Northeast 485 558 35,100 1,020 Climbing Oakland Center
08:17PM 39.3486 -119.9872 53° Northeast 483 556 35,900 840 Climbing Oakland Center
08:18PM 39.4267 -119.8464 54° Northeast 480 552 36,900 540 Climbing Oakland Center
08:19PM 39.5039 -119.7075 54° Northeast 475 547 37,000  Climbing Oakland Center
08:20PM 39.5672 -119.5578 61° Northeast 474 545 37,000  Level Oakland Center
08:21PM 39.6214 -119.3992 66° East 477 549 37,000  Level Oakland Center
08:22PM 39.6761 -119.2408 66° East 478 550 37,000  Level Oakland Center
08:23PM 39.7303 -119.0819 66° East 478 550 37,000  Level Oakland Center
08:24PM 39.7853 -118.9233 66° East 477 549 37,000  Level Oakland Center
08:25PM 39.8381 -118.7628 67° East 478 550 37,000 -60 Level Oakland Center
08:26PM 39.8925 -118.6036 66° East 477 549 36,900  Descending Oakland Center
08:27PM 39.9550 -118.4133 67° East 474 545 37,000  Climbing Oakland Center
08:28PM 40.0081 -118.2544 66° East 476 548 37,000  Level Oakland Center
08:29PM 40.0617 -118.0947 66° East 478 550 37,000  Level Oakland Center
08:31PM 40.1133 -117.9350 67° East 478 550 37,000  Level Oakland Center
08:32PM 40.1656 -117.7758 67° East 478 550 37,000  Level Oakland Center
08:33PM 40.2211 -117.6183 65° Northeast 477 549 37,000  Level Oakland Center
08:33PM 40.2575 -117.5422 58° Northeast 479 551 37,000  Level Salt Lake Center
08:34PM 40.3328 -117.3744 59° Northeast 479 551 37,000  Level Salt Lake Center
08:35PM 40.3972 -117.2325 59° Northeast 475 547 37,000  Level Salt Lake Center
08:36PM 40.4736 -117.0639 59° Northeast 475 547 37,000  Level Salt Lake Center
08:37PM 40.5383 -116.9150 60° Northeast 478 550 37,000  Level Salt Lake Center
08:38PM 40.6039 -116.7692 59° Northeast 475 547 37,000  Level Salt Lake Center
08:39PM 40.6794 -116.6022 59° Northeast 473 544 37,000  Level Salt Lake Center
08:40PM 40.7428 -116.4594 60° Northeast 472 543 37,000  Level Salt Lake Center
08:41PM 40.8192 -116.2925 59° Northeast 475 547 37,000  Level Salt Lake Center
08:42PM 40.8822 -116.1478 60° Northeast 474 545 37,000  Level Salt Lake Center
08:43PM 40.9478 -116.0056 59° Northeast 476 548 37,000  Level Salt Lake Center
08:44PM 41.0217 -115.8386 60° Northeast 471 542 37,000  Level Salt Lake Center
08:46PM 41.0917 -115.6756 60° Northeast 469 540 37,000 -60 Level Salt Lake Center
08:47PM 41.1575 -115.5269 59° Northeast 472 543 36,900  Descending Salt Lake Center
08:48PM 41.2217 -115.3822 59° Northeast 473 544 37,000  Climbing Salt Lake Center
08:49PM 41.2958 -115.2111 60° Northeast 477 549 37,000  Level Salt Lake Center
08:51PM 41.4333 -114.8922 60° Northeast 479 551 37,000  Level Salt Lake Center
08:52PM 41.4881 -114.7619 61° Northeast 473 544 37,000  Level Salt Lake Center
08:53PM 41.5669 -114.5778 60° Northeast 476 548 37,000  Level Salt Lake Center
08:54PM 41.6306 -114.4231 61° Northeast 475 547 37,000  Level Salt Lake Center
08:55PM 41.6761 -114.2583 70° East 474 545 37,000  Level Salt Lake Center
08:56PM 41.7211 -114.0922 70° East 474 545 37,000  Level Salt Lake Center
08:57PM 41.7647 -113.9275 70° East 472 543 37,000  Level Salt Lake Center
08:58PM 41.8075 -113.7608 71° East 473 544 37,000  Level Salt Lake Center
08:59PM 41.8500 -113.5942 71° East 472 543 37,000  Level Salt Lake Center
09:00PM 41.9014 -113.3931 71° East 474 545 37,000  Level Salt Lake Center
09:01PM 41.9422 -113.2278 72° East 469 540 37,000  Level Salt Lake Center
09:02PM 41.9844 -113.0597 71° East 473 544 37,000  Level Salt Lake Center
09:03PM 42.0253 -112.8944 72° East 468 539 37,000  Level Salt Lake Center
09:04PM 42.0658 -112.7281 72° East 467 537 37,000  Level Salt Lake Center
09:05PM 42.1069 -112.5603 72° East 470 541 37,000  Level Salt Lake Center
09:06PM 42.1481 -112.3925 72° East 470 541 37,000  Level Salt Lake Center
09:07PM 42.1964 -112.1892 72° East 474 545 37,000  Level Salt Lake Center
09:08PM 42.2372 -112.0200 72° East 474 545 37,000  Level Salt Lake Center
09:09PM 42.2775 -111.8528 72° East 471 542 37,000  Level Salt Lake Center
09:10PM 42.3164 -111.6856 72° East 468 539 37,000  Level Salt Lake Center
09:11PM 42.3561 -111.5189 72° East 467 537 37,000  Level Salt Lake Center
09:12PM 42.3947 -111.3503 73° East 468 539 37,000  Level Salt Lake Center
09:13PM 42.4339 -111.1825 72° East 468 539 37,000  Level Salt Lake Center
09:14PM 42.4728 -111.0122 73° East 472 543 37,000  Level Salt Lake Center
09:15PM 42.5150 -110.8250 73° East 472 543 37,000  Level Salt Lake Center
09:16PM 42.5600 -110.6331 72° East 476 548 37,000  Level Salt Lake Center
09:17PM 42.5958 -110.4681 74° East 477 549 37,000  Level Salt Lake Center
09:18PM 42.6381 -110.2775 73° East 473 544 37,000 -60 Level Salt Lake Center
09:19PM 42.6742 -110.1136 73° East 473 544 36,900 -60 Descending Salt Lake Center
09:21PM 42.7094 -109.9508 74° East 470 541 36,900  Level Salt Lake Center
09:22PM 42.7517 -109.7608 73° East 469 540 37,000  Climbing Salt Lake Center
09:23PM 42.7875 -109.5967 73° East 471 542 37,000  Level Salt Lake Center
09:24PM 42.8281 -109.4039 74° East 473 544 37,000  Level Salt Lake Center
09:25PM 42.8639 -109.2386 73° East 475 547 37,000  Level Salt Lake Center
09:26PM 42.8975 -109.0714 75° East 476 548 37,000  Level Salt Lake Center
09:27PM 42.9389 -108.8767 74° East 478 550 37,000  Level Salt Lake Center
09:28PM 42.9850 -108.7014 70° East 485 558 37,000  Level Salt Lake Center
09:29PM 43.0353 -108.5361 67° East 477 549 37,000  Level Salt Lake Center
09:30PM 43.0844 -108.3672 68° East 480 552 37,000  Level Salt Lake Center
09:31PM 43.1344 -108.1986 68° East 481 554 37,000  Level Salt Lake Center
09:32PM 43.2033 -108.0469 58° Northeast 473 544 37,000 -60 Level Salt Lake Center
09:33PM 43.2828 -107.8611 60° Northeast 474 545 36,900 -60 Descending Salt Lake Center
09:34PM 43.3306 -107.6908 69° East 483 556 36,900  Level Salt Lake Center
09:35PM 43.3828 -107.5200 67° East 485 558 37,000  Climbing Salt Lake Center
09:36PM 43.4314 -107.3453 69° East 492 566 37,000  Level Salt Lake Center
09:37PM 43.4478 -107.1594 83° East 496 571 37,000  Level Salt Lake Center
09:38PM 43.4586 -107.0064 84° East 500 575 37,000  Level Denver Center
09:39PM 43.4700 -106.8344 85° East 497 572 37,000  Level Denver Center
09:40PM 43.4822 -106.6261 85° East 489 563 37,000  Level Denver Center
09:41PM 43.4936 -106.4469 85° East 489 563 37,000 -60 Level Denver Center
09:42PM 43.4931 -106.2386 90° East 488 562 36,900  Descending Denver Center
09:43PM 43.4908 -106.0886 91° East 491 565 37,000  Climbing Denver Center
09:44PM 43.4881 -105.8489 91° East 489 563 37,000  Level Denver Center
09:45PM 43.4864 -105.6667 91° East 496 571 37,000  Level Denver Center
09:46PM 43.4850 -105.4547 90° East 495 570 37,000  Level Denver Center
09:47PM 43.4747 -105.2714 94° East 501 577 37,000  Level Denver Center
09:48PM 43.4650 -105.0594 94° East 498 573 37,000  Level Denver Center
09:49PM 43.4564 -104.8786 94° East 495 570 37,000 -60 Level Denver Center
09:50PM 43.4447 -104.6986 95° East 493 567 36,900  Descending Denver Center
09:51PM 43.4283 -104.4889 96° East 493 567 37,000  Climbing Denver Center
09:52PM 43.4158 -104.3078 95° East 494 568 37,000  Level Denver Center
09:53PM 43.4261 -104.0975 86° East 496 571 37,000 -60 Level Denver Center
09:54PM 43.4364 -103.9175 85° East 493 567 36,900  Descending Denver Center
09:55PM 43.4492 -103.7044 85° East 499 574 37,000  Climbing Denver Center
09:56PM 43.4597 -103.5219 85° East 501 577 37,000  Level Denver Center
09:57PM 43.4711 -103.3064 86° East 505 581 37,000  Level Denver Center
09:58PM 43.4808 -103.1186 86° East 511 588 37,000  Level Denver Center
09:59PM 43.4911 -102.9311 86° East 513 590 37,000  Level Denver Center
10:00PM 43.5022 -102.7108 86° East 517 595 37,000  Level Denver Center
10:01PM 43.5103 -102.5192 87° East 523 602 37,000  Level Denver Center
10:02PM 43.5217 -102.2986 86° East 519 597 37,000 -60 Level Denver Center
10:03PM 43.5306 -102.0972 86° East 518 596 36,900 -60 Descending Denver Center
10:04PM 43.5394 -101.9028 86° East 512 589 36,900  Level Denver Center
10:06PM 43.5472 -101.7064 87° East 515 593 36,900  Level Denver Center
10:07PM 43.5531 -101.5506 87° East 512 589 37,000  Climbing Denver Center
10:08PM 43.5631 -101.3153 87° East 515 593 37,000  Level Denver Center
10:09PM 43.5714 -101.1222 87° East 513 590 37,000  Level Minneapolis Center
10:10PM 43.5778 -100.9247 87° East 516 594 37,000  Level Minneapolis Center
10:11PM 43.5861 -100.6867 87° East 519 597 37,000  Level Minneapolis Center
10:12PM 43.5925 -100.4889 87° East 519 597 37,000  Level Minneapolis Center
10:13PM 43.5994 -100.2886 87° East 522 601 37,000  Level Minneapolis Center
10:14PM 43.6047 -100.0881 88° East 525 604 37,000  Level Minneapolis Center
10:15PM 43.6106 -99.8883 88° East 524 603 37,000  Level Minneapolis Center
10:16PM 43.6156 -99.6894 88° East 522 601 37,000  Level Minneapolis Center
10:17PM 43.6200 -99.4889 88° East 525 604 37,000  Level Minneapolis Center
10:18PM 43.6244 -99.2886 88° East 525 604 37,000  Level Minneapolis Center
10:19PM 43.6292 -99.0486 88° East 524 603 37,000  Level Minneapolis Center
10:20PM 43.6331 -98.8511 88° East 520 598 37,000  Level Minneapolis Center
10:21PM 43.6367 -98.5964 89° East 519 597 37,000 -60 Level Minneapolis Center
10:22PM 43.6403 -98.4003 88° East 514 592 36,900  Descending Minneapolis Center
10:23PM 43.6425 -98.2022 89° East 516 594 37,000  Climbing Minneapolis Center
10:24PM 43.6442 -97.9658 89° East 517 595 37,000  Level Minneapolis Center
10:25PM 43.6464 -97.7672 89° East 519 597 37,000  Level Minneapolis Center
10:26PM 43.6472 -97.5697 90° East 518 596 37,000  Level Minneapolis Center
10:27PM 43.6481 -97.3708 90° East 520 598 37,000  Level Minneapolis Center
10:28PM 43.6492 -97.1708 89° East 524 603 37,000  Level Minneapolis Center
10:29PM 43.6492 -96.9367 90° East 515 593 37,000  Level Minneapolis Center
10:30PM 43.6433 -96.7408 92° East 515 593 37,000  Level Minneapolis Center
10:32PM 43.6214 -96.5878 101° East 514 592 37,000 -60 Level Minneapolis Center
10:33PM 43.5872 -96.3578 102° East 515 593 36,900  Descending Minneapolis Center
10:34PM 43.5597 -96.1675 101° East 513 590 37,000  Climbing Minneapolis Center
10:35PM 43.5303 -95.9756 102° East 516 594 37,000  Level Minneapolis Center
10:36PM 43.5011 -95.7850 102° East 514 592 37,000  Level Minneapolis Center
10:37PM 43.4656 -95.5547 102° East 517 595 37,000  Level Minneapolis Center
10:38PM 43.4353 -95.3631 102° East 517 595 37,000  Level Minneapolis Center
10:39PM 43.4050 -95.1708 102° East 518 596 37,000  Level Minneapolis Center
10:40PM 43.3750 -94.9825 102° East 510 587 37,000  Level Minneapolis Center
10:41PM 43.3436 -94.7917 103° East 513 590 37,000  Level Minneapolis Center
10:42PM 43.3125 -94.6017 103° East 512 589 37,000  Level Minneapolis Center
10:43PM 43.2808 -94.4133 103° East 509 586 37,000  Level Minneapolis Center
10:44PM 43.2450 -94.2042 103° East 514 592 37,000  Level Minneapolis Center
10:45PM 43.2144 -94.0167 103° East 511 588 37,000  Level Minneapolis Center
10:46PM 43.1753 -93.7906 103° East 513 590 37,000  Level Minneapolis Center
10:47PM 43.1419 -93.6028 104° East 511 588 37,000  Level Minneapolis Center
10:48PM 43.1094 -93.4156 103° East 511 588 37,000  Level Minneapolis Center
10:49PM 43.0856 -93.1911 98° East 500 575 37,000 -60 Level Minneapolis Center
10:50PM 43.0761 -93.0053 94° East 495 570 36,900 -60 Descending Minneapolis Center
10:51PM 43.0644 -92.8194 95° East 495 570 36,900  Level Minneapolis Center
10:52PM 43.0542 -92.6356 94° East 492 566 37,000  Climbing Minneapolis Center
10:53PM 43.0431 -92.4500 95° East 493 567 37,000  Level Minneapolis Center
10:54PM 43.0303 -92.2644 95° East 494 568 37,000  Level Minneapolis Center
10:55PM 43.0167 -92.0397 95° East 495 570 37,000  Level Minneapolis Center
10:56PM 43.0031 -91.8531 96° East 497 572 37,000  Level Chicago Center
10:57PM 42.9892 -91.6289 95° East 492 566 37,000  Level Chicago Center
10:58PM 42.9761 -91.4400 95° East 492 566 37,000  Level Minneapolis Center
11:00PM 42.9617 -91.2544 96° East 491 565 37,000  Level Minneapolis Center
11:01PM 42.9486 -91.0731 96° East 488 562 37,000 -60 Level Chicago Center
11:02PM 42.9347 -90.8906 96° East 487 560 36,900  Descending Chicago Center
11:03PM 42.9197 -90.7069 96° East 490 564 37,000  Climbing Chicago Center
11:04PM 42.9058 -90.5231 96° East 491 565 37,000  Level Chicago Center
11:05PM 42.8911 -90.3400 96° East 489 563 37,000  Level Chicago Center
11:06PM 42.8742 -90.1581 97° East 491 565 37,000  Level Chicago Center
11:07PM 42.8583 -89.9750 97° East 490 564 37,000  Level Chicago Center
11:08PM 42.8431 -89.7703 96° East 483 556 37,000  Level Chicago Center
11:09PM 42.8272 -89.5881 97° East 484 557 37,000  Level Chicago Center
11:10PM 42.8106 -89.4056 97° East 486 559 37,000  Level Chicago Center
11:11PM 42.7942 -89.2242 97° East 485 558 37,000  Level Chicago Center
11:12PM 42.7744 -89.0119 97° East 484 557 37,000  Level Chicago Center
11:13PM 42.7578 -88.8314 97° East 482 555 37,000  Level Chicago Center
11:14PM 42.7408 -88.6525 97° East 480 552 37,000  Level Chicago Center
11:15PM 42.7225 -88.4733 98° East 479 551 37,000  Level Chicago Center
11:16PM 42.7053 -88.2967 97° East 475 547 37,000  Level Chicago Center
11:17PM 42.6878 -88.1192 98° East 475 547 37,000  Level Chicago Center
11:18PM 42.6697 -87.9419 98° East 476 548 37,000  Level Chicago Center
11:19PM 42.6514 -87.7661 98° East 473 544 37,000  Level Chicago Center
11:20PM 42.6306 -87.5625 98° East 470 541 37,000  Level Chicago Center
11:21PM 42.6119 -87.3894 98° East 466 536 37,000  Level Chicago Center
11:22PM 42.5944 -87.2294 98° East 468 539 37,000 -60 Level Chicago Center
11:23PM 42.5753 -87.0564 98° East 466 536 36,900  Descending Chicago Center
11:24PM 42.5558 -86.8833 99° East 466 536 37,000  Climbing Chicago Center
11:25PM 42.5356 -86.7089 99° East 469 540 37,000  Level Chicago Center
11:26PM 42.5058 -86.5014 101° East 474 545 37,000  Level Chicago Center
11:27PM 42.4675 -86.3297 107° East 479 551 37,000  Level Chicago Center
11:28PM 42.4314 -86.1603 106° East 475 547 37,000  Level Chicago Center
11:29PM 42.3953 -85.9939 106° East 467 537 37,000 -60 Level Chicago Center
11:30PM 42.3614 -85.8311 106° East 457 526 36,900 -60 Descending Chicago Center
11:31PM 42.3247 -85.6700 107° East 452 520 36,900 -300 Level Chicago Center
11:32PM 42.2864 -85.5075 108° East 455 524 36,400 -840 Descending Chicago Center
11:33PM 42.2478 -85.3403 107° East 465 535 35,200 -1,140 Descending Chicago Center
11:34PM 42.2128 -85.1697 105° East 475 547 34,100 -1,080 Descending Chicago Center
11:35PM 42.1758 -85.0033 107° East 469 540 33,100 -720 Descending Chicago Center
11:36PM 42.1300 -84.8053 107° East 465 535 32,700 -660 Descending Chicago Center
11:37PM 42.0914 -84.6414 108° East 464 534 31,800 -960 Descending Chicago Center
11:38PM 42.0542 -84.4733 107° East 467 537 30,800 -1,020 Descending Chicago Center
11:39PM 42.0236 -84.3347 106° East 465 535 30,000 -960 Descending Cleveland Center
11:40PM 41.9825 -84.1897 111° Southeast 465 535 29,100 -960 Descending Cleveland Center
11:41PM 41.9456 -84.0311 107° East 454 522 28,100 -1,140 Descending Cleveland Center
11:42PM 41.9047 -83.8617 108° East 444 511 26,900 -1,140 Descending Cleveland Center
11:43PM 41.8694 -83.7092 107° East 439 505 25,900 -1,380 Descending Cleveland Center
11:44PM 41.8339 -83.5569 107° East 431 496 24,200 -1,860 Descending Cleveland Center
11:45PM 41.7978 -83.4131 109° East 426 490 22,200 -2,040 Descending Cleveland Center
11:46PM 41.7639 -83.2697 108° East 411 473 20,200 -1,980 Descending Cleveland Center
11:47PM 41.7294 -83.1347 109° East 394 453 18,300 -1,860 Descending Cleveland Center
11:48PM 41.6989 -83.0056 108° East 380 437 16,500 -1,800 Descending Cleveland Center
11:49PM 41.6681 -82.8764 108° East 370 426 14,700 -1,320 Descending Cleveland Center
11:50PM 41.6389 -82.7642 109° East 357 411 13,900 -1,200 Descending Cleveland Center
11:51PM 41.6081 -82.6411 108° East 349 402 12,400 -1,740 Descending Cleveland Center
11:52PM 41.5744 -82.5289 112° Southeast 341 392 10,500 -1,200 Descending Cleveland Center
11:53PM 41.5283 -82.4250 121° Southeast 322 371 10,000 -900 Descending Cleveland Center
11:54PM 41.4861 -82.3239 119° Southeast 302 348 8,800 -1,620 Descending Cleveland Center
11:55PM 41.4436 -82.2314 121° Southeast 294 338 6,800 -1,980 Descending Cleveland Center
11:56PM 41.4094 -82.1472 118° Southeast 274 315 4,900 -1,380 Descending Cleveland Center
11:57PM 41.3728 -82.0689 122° Southeast 262 302 4,100 -900 Descending Cleveland Center
11:58PM 41.3425 -82.0019 121° Southeast 227 261 3,100 -900 Descending Cleveland Center
11:59PM 41.3472 -81.9522 83° East 145 167 2,300 -780 Descending Cleveland Center
12:00AM 41.3706 -81.9167 49° Northeast 121 139 1,600 -720 Descending Cleveland Center